sensor_id;sensor_type;location;lat;lon;timestamp;P1;durP1;ratioP1;P2;durP2;ratioP2
78732;SDS011;68056;52.530;5.454;2024-01-10T00:00:37;1.48;;;1.00;;
78732;SDS011;68056;52.530;5.454;2024-01-10T00:03:03;1.33;;;0.88;;
78732;SDS011;68056;52.530;5.454;2024-01-10T00:05:28;3.08;;;1.23;;
78732;SDS011;68056;52.530;5.454;2024-01-10T00:07:54;2.60;;;1.63;;
78732;SDS011;68056;52.530;5.454;2024-01-10T00:10:20;2.63;;;1.42;;
78732;SDS011;68056;52.530;5.454;2024-01-10T00:12:46;1.35;;;1.00;;
78732;SDS011;68056;52.530;5.454;2024-01-10T00:15:12;0.95;;;0.80;;
78732;SDS011;68056;52.530;5.454;2024-01-10T00:17:39;2.10;;;1.63;;
78732;SDS011;68056;52.530;5.454;2024-01-10T00:20:06;1.65;;;0.80;;
78732;SDS011;68056;52.530;5.454;2024-01-10T00:22:32;1.52;;;1.23;;
78732;SDS011;68056;52.530;5.454;2024-01-10T00:24:58;2.03;;;1.30;;
78732;SDS011;68056;52.530;5.454;2024-01-10T00:27:24;1.58;;;1.20;;
78732;SDS011;68056;52.530;5.454;2024-01-10T00:29:49;2.65;;;1.85;;
78732;SDS011;68056;52.530;5.454;2024-01-10T00:32:16;3.88;;;2.47;;
78732;SDS011;68056;52.530;5.454;2024-01-10T00:34:42;3.22;;;1.65;;
78732;SDS011;68056;52.530;5.454;2024-01-10T00:37:07;1.67;;;1.15;;
78732;SDS011;68056;52.530;5.454;2024-01-10T00:39:33;3.22;;;2.25;;
78732;SDS011;68056;52.530;5.454;2024-01-10T00:41:59;1.67;;;1.02;;
78732;SDS011;68056;52.530;5.454;2024-01-10T00:44:24;2.15;;;1.60;;
78732;SDS011;68056;52.530;5.454;2024-01-10T00:46:50;3.22;;;2.05;;
78732;SDS011;68056;52.530;5.454;2024-01-10T00:49:15;3.33;;;2.00;;
78732;SDS011;68056;52.530;5.454;2024-01-10T00:51:41;3.10;;;1.65;;
78732;SDS011;68056;52.530;5.454;2024-01-10T00:54:06;3.88;;;2.80;;
78732;SDS011;68056;52.530;5.454;2024-01-10T00:56:32;4.85;;;2.38;;
78732;SDS011;68056;52.530;5.454;2024-01-10T00:58:57;3.60;;;1.70;;
78732;SDS011;68056;52.530;5.454;2024-01-10T01:01:23;4.47;;;2.08;;
78732;SDS011;68056;52.530;5.454;2024-01-10T01:03:49;3.45;;;2.35;;
78732;SDS011;68056;52.530;5.454;2024-01-10T01:06:15;3.85;;;2.05;;
78732;SDS011;68056;52.530;5.454;2024-01-10T01:08:40;3.08;;;1.83;;
78732;SDS011;68056;52.530;5.454;2024-01-10T01:11:06;3.38;;;1.85;;
78732;SDS011;68056;52.530;5.454;2024-01-10T01:13:32;3.88;;;1.88;;
78732;SDS011;68056;52.530;5.454;2024-01-10T01:15:57;3.35;;;1.75;;
78732;SDS011;68056;52.530;5.454;2024-01-10T01:18:23;2.65;;;1.38;;
78732;SDS011;68056;52.530;5.454;2024-01-10T01:20:48;2.47;;;1.70;;
78732;SDS011;68056;52.530;5.454;2024-01-10T01:23:15;2.85;;;1.77;;
78732;SDS011;68056;52.530;5.454;2024-01-10T01:25:41;2.38;;;1.40;;
78732;SDS011;68056;52.530;5.454;2024-01-10T01:28:07;3.33;;;1.88;;
78732;SDS011;68056;52.530;5.454;2024-01-10T01:30:33;3.00;;;2.05;;
78732;SDS011;68056;52.530;5.454;2024-01-10T01:32:58;3.78;;;2.35;;
78732;SDS011;68056;52.530;5.454;2024-01-10T01:35:24;5.05;;;2.88;;
78732;SDS011;68056;52.530;5.454;2024-01-10T01:37:49;3.08;;;1.80;;
78732;SDS011;68056;52.530;5.454;2024-01-10T01:40:17;1.98;;;1.58;;
78732;SDS011;68056;52.530;5.454;2024-01-10T01:42:44;4.38;;;2.45;;
78732;SDS011;68056;52.530;5.454;2024-01-10T01:45:10;4.13;;;2.15;;
78732;SDS011;68056;52.530;5.454;2024-01-10T01:47:36;4.28;;;2.42;;
78732;SDS011;68056;52.530;5.454;2024-01-10T01:50:03;2.45;;;1.63;;
78732;SDS011;68056;52.530;5.454;2024-01-10T01:52:30;3.72;;;1.77;;
78732;SDS011;68056;52.530;5.454;2024-01-10T01:54:56;2.30;;;1.52;;
78732;SDS011;68056;52.530;5.454;2024-01-10T01:57:22;3.38;;;1.63;;
78732;SDS011;68056;52.530;5.454;2024-01-10T01:59:48;3.42;;;2.13;;
78732;SDS011;68056;52.530;5.454;2024-01-10T02:02:14;3.63;;;2.13;;
78732;SDS011;68056;52.530;5.454;2024-01-10T02:04:42;3.25;;;1.83;;
78732;SDS011;68056;52.530;5.454;2024-01-10T02:07:07;3.13;;;1.90;;
78732;SDS011;68056;52.530;5.454;2024-01-10T02:09:33;2.58;;;1.80;;
78732;SDS011;68056;52.530;5.454;2024-01-10T02:11:59;4.75;;;2.28;;
78732;SDS011;68056;52.530;5.454;2024-01-10T02:14:24;4.22;;;2.10;;
78732;SDS011;68056;52.530;5.454;2024-01-10T02:16:50;4.60;;;2.35;;
78732;SDS011;68056;52.530;5.454;2024-01-10T02:19:22;3.00;;;1.73;;
78732;SDS011;68056;52.530;5.454;2024-01-10T02:21:48;3.95;;;1.90;;
78732;SDS011;68056;52.530;5.454;2024-01-10T02:24:14;4.75;;;2.53;;
78732;SDS011;68056;52.530;5.454;2024-01-10T02:26:40;6.20;;;2.38;;
78732;SDS011;68056;52.530;5.454;2024-01-10T02:29:06;5.22;;;2.80;;
78732;SDS011;68056;52.530;5.454;2024-01-10T02:31:32;3.40;;;2.15;;
78732;SDS011;68056;52.530;5.454;2024-01-10T02:33:57;3.35;;;2.28;;
78732;SDS011;68056;52.530;5.454;2024-01-10T02:36:23;4.13;;;2.20;;
78732;SDS011;68056;52.530;5.454;2024-01-10T02:38:48;2.95;;;1.80;;
78732;SDS011;68056;52.530;5.454;2024-01-10T02:41:15;3.00;;;1.63;;
78732;SDS011;68056;52.530;5.454;2024-01-10T02:43:41;4.25;;;2.72;;
78732;SDS011;68056;52.530;5.454;2024-01-10T02:46:06;2.50;;;1.70;;
78732;SDS011;68056;52.530;5.454;2024-01-10T02:48:32;2.20;;;1.63;;
78732;SDS011;68056;52.530;5.454;2024-01-10T02:50:57;3.60;;;1.70;;
78732;SDS011;68056;52.530;5.454;2024-01-10T02:53:23;4.70;;;2.75;;
78732;SDS011;68056;52.530;5.454;2024-01-10T02:55:48;2.78;;;1.52;;
78732;SDS011;68056;52.530;5.454;2024-01-10T02:58:15;3.53;;;2.25;;
78732;SDS011;68056;52.530;5.454;2024-01-10T03:00:40;3.47;;;1.83;;
78732;SDS011;68056;52.530;5.454;2024-01-10T03:03:06;3.72;;;2.08;;
78732;SDS011;68056;52.530;5.454;2024-01-10T03:05:31;4.88;;;2.22;;
78732;SDS011;68056;52.530;5.454;2024-01-10T03:07:57;2.72;;;1.67;;
78732;SDS011;68056;52.530;5.454;2024-01-10T03:10:23;3.78;;;2.38;;
78732;SDS011;68056;52.530;5.454;2024-01-10T03:12:48;2.55;;;1.58;;
78732;SDS011;68056;52.530;5.454;2024-01-10T03:15:14;3.08;;;2.03;;
78732;SDS011;68056;52.530;5.454;2024-01-10T03:17:39;2.58;;;1.83;;
78732;SDS011;68056;52.530;5.454;2024-01-10T03:20:05;3.80;;;2.22;;
78732;SDS011;68056;52.530;5.454;2024-01-10T03:22:33;4.20;;;2.53;;
78732;SDS011;68056;52.530;5.454;2024-01-10T03:24:59;4.15;;;2.50;;
78732;SDS011;68056;52.530;5.454;2024-01-10T03:27:25;3.92;;;2.08;;
78732;SDS011;68056;52.530;5.454;2024-01-10T03:29:51;6.38;;;3.00;;
78732;SDS011;68056;52.530;5.454;2024-01-10T03:32:16;4.10;;;1.50;;
78732;SDS011;68056;52.530;5.454;2024-01-10T03:34:42;3.22;;;1.83;;
78732;SDS011;68056;52.530;5.454;2024-01-10T03:37:07;3.83;;;1.88;;
78732;SDS011;68056;52.530;5.454;2024-01-10T03:39:33;6.43;;;2.92;;
78732;SDS011;68056;52.530;5.454;2024-01-10T03:41:59;4.60;;;2.80;;
78732;SDS011;68056;52.530;5.454;2024-01-10T03:44:26;4.28;;;2.30;;
78732;SDS011;68056;52.530;5.454;2024-01-10T03:46:52;5.07;;;2.50;;
78732;SDS011;68056;52.530;5.454;2024-01-10T03:49:17;5.32;;;2.80;;
78732;SDS011;68056;52.530;5.454;2024-01-10T03:51:43;3.75;;;2.20;;
78732;SDS011;68056;52.530;5.454;2024-01-10T03:54:09;4.07;;;2.80;;
78732;SDS011;68056;52.530;5.454;2024-01-10T03:56:34;3.03;;;2.50;;
78732;SDS011;68056;52.530;5.454;2024-01-10T03:59:00;3.95;;;2.10;;
78732;SDS011;68056;52.530;5.454;2024-01-10T04:01:26;2.95;;;2.00;;
78732;SDS011;68056;52.530;5.454;2024-01-10T04:03:52;4.60;;;2.42;;
78732;SDS011;68056;52.530;5.454;2024-01-10T04:06:18;3.55;;;1.90;;
78732;SDS011;68056;52.530;5.454;2024-01-10T04:08:43;2.40;;;1.73;;
78732;SDS011;68056;52.530;5.454;2024-01-10T04:11:09;5.43;;;2.33;;
78732;SDS011;68056;52.530;5.454;2024-01-10T04:13:34;4.15;;;2.33;;
78732;SDS011;68056;52.530;5.454;2024-01-10T04:16:00;3.47;;;2.08;;
78732;SDS011;68056;52.530;5.454;2024-01-10T04:18:26;3.65;;;1.92;;
78732;SDS011;68056;52.530;5.454;2024-01-10T04:20:51;3.75;;;2.22;;
78732;SDS011;68056;52.530;5.454;2024-01-10T04:23:17;4.60;;;2.15;;
78732;SDS011;68056;52.530;5.454;2024-01-10T04:25:42;4.40;;;2.72;;
78732;SDS011;68056;52.530;5.454;2024-01-10T04:28:08;4.32;;;2.00;;
78732;SDS011;68056;52.530;5.454;2024-01-10T04:30:33;3.83;;;2.08;;
78732;SDS011;68056;52.530;5.454;2024-01-10T04:32:59;4.30;;;2.03;;
78732;SDS011;68056;52.530;5.454;2024-01-10T04:35:25;3.88;;;2.20;;
78732;SDS011;68056;52.530;5.454;2024-01-10T04:37:50;3.45;;;1.67;;
78732;SDS011;68056;52.530;5.454;2024-01-10T04:40:16;4.95;;;2.08;;
78732;SDS011;68056;52.530;5.454;2024-01-10T04:42:42;4.72;;;2.17;;
78732;SDS011;68056;52.530;5.454;2024-01-10T04:45:08;3.55;;;2.00;;
78732;SDS011;68056;52.530;5.454;2024-01-10T04:47:33;3.13;;;1.98;;
78732;SDS011;68056;52.530;5.454;2024-01-10T04:49:59;3.03;;;2.10;;
78732;SDS011;68056;52.530;5.454;2024-01-10T04:52:24;2.95;;;2.08;;
78732;SDS011;68056;52.530;5.454;2024-01-10T04:54:50;3.55;;;1.65;;
78732;SDS011;68056;52.530;5.454;2024-01-10T04:57:16;2.38;;;1.55;;
78732;SDS011;68056;52.530;5.454;2024-01-10T04:59:41;2.90;;;2.20;;
78732;SDS011;68056;52.530;5.454;2024-01-10T05:02:07;2.85;;;1.40;;
78732;SDS011;68056;52.530;5.454;2024-01-10T05:04:33;3.17;;;1.73;;
78732;SDS011;68056;52.530;5.454;2024-01-10T05:06:58;4.10;;;2.00;;
78732;SDS011;68056;52.530;5.454;2024-01-10T05:09:24;3.78;;;1.85;;
78732;SDS011;68056;52.530;5.454;2024-01-10T05:11:49;3.22;;;1.80;;
78732;SDS011;68056;52.530;5.454;2024-01-10T05:14:16;3.00;;;1.77;;
78732;SDS011;68056;52.530;5.454;2024-01-10T05:16:46;4.65;;;2.15;;
78732;SDS011;68056;52.530;5.454;2024-01-10T05:19:12;3.80;;;2.28;;
78732;SDS011;68056;52.530;5.454;2024-01-10T05:21:38;3.67;;;2.20;;
78732;SDS011;68056;52.530;5.454;2024-01-10T05:24:04;2.90;;;1.65;;
78732;SDS011;68056;52.530;5.454;2024-01-10T05:26:30;3.65;;;2.00;;
78732;SDS011;68056;52.530;5.454;2024-01-10T05:28:56;2.75;;;1.70;;
78732;SDS011;68056;52.530;5.454;2024-01-10T05:31:22;3.15;;;2.17;;
78732;SDS011;68056;52.530;5.454;2024-01-10T05:33:48;2.42;;;1.55;;
78732;SDS011;68056;52.530;5.454;2024-01-10T05:36:13;2.40;;;1.85;;
78732;SDS011;68056;52.530;5.454;2024-01-10T05:38:39;1.75;;;1.40;;
78732;SDS011;68056;52.530;5.454;2024-01-10T05:41:05;1.50;;;1.20;;
78732;SDS011;68056;52.530;5.454;2024-01-10T05:43:30;3.10;;;1.33;;
78732;SDS011;68056;52.530;5.454;2024-01-10T05:45:56;2.35;;;1.20;;
78732;SDS011;68056;52.530;5.454;2024-01-10T05:48:22;2.90;;;1.50;;
78732;SDS011;68056;52.530;5.454;2024-01-10T05:50:48;2.40;;;1.58;;
78732;SDS011;68056;52.530;5.454;2024-01-10T05:53:15;2.88;;;1.38;;
78732;SDS011;68056;52.530;5.454;2024-01-10T05:55:42;1.48;;;1.20;;
78732;SDS011;68056;52.530;5.454;2024-01-10T05:58:09;2.28;;;1.30;;
78732;SDS011;68056;52.530;5.454;2024-01-10T06:00:35;2.75;;;1.20;;
78732;SDS011;68056;52.530;5.454;2024-01-10T06:03:00;2.05;;;1.33;;
78732;SDS011;68056;52.530;5.454;2024-01-10T06:05:26;2.30;;;1.15;;
78732;SDS011;68056;52.530;5.454;2024-01-10T06:07:51;2.58;;;1.58;;
78732;SDS011;68056;52.530;5.454;2024-01-10T06:10:17;1.85;;;1.10;;
78732;SDS011;68056;52.530;5.454;2024-01-10T06:12:43;1.70;;;0.98;;
78732;SDS011;68056;52.530;5.454;2024-01-10T06:15:08;2.78;;;1.10;;
78732;SDS011;68056;52.530;5.454;2024-01-10T06:17:34;2.03;;;1.38;;
78732;SDS011;68056;52.530;5.454;2024-01-10T06:20:00;1.50;;;1.08;;
78732;SDS011;68056;52.530;5.454;2024-01-10T06:22:28;2.17;;;1.33;;
78732;SDS011;68056;52.530;5.454;2024-01-10T06:24:53;2.20;;;1.30;;
78732;SDS011;68056;52.530;5.454;2024-01-10T06:27:19;1.80;;;1.20;;
78732;SDS011;68056;52.530;5.454;2024-01-10T06:29:44;1.48;;;1.23;;
78732;SDS011;68056;52.530;5.454;2024-01-10T06:32:10;3.17;;;1.40;;
78732;SDS011;68056;52.530;5.454;2024-01-10T06:34:36;1.77;;;0.95;;
78732;SDS011;68056;52.530;5.454;2024-01-10T06:37:02;1.88;;;1.35;;
78732;SDS011;68056;52.530;5.454;2024-01-10T06:39:28;1.92;;;1.13;;
78732;SDS011;68056;52.530;5.454;2024-01-10T06:41:53;3.25;;;1.20;;
78732;SDS011;68056;52.530;5.454;2024-01-10T06:44:20;2.97;;;1.40;;
78732;SDS011;68056;52.530;5.454;2024-01-10T06:46:45;2.78;;;1.48;;
78732;SDS011;68056;52.530;5.454;2024-01-10T06:49:11;2.10;;;1.25;;
78732;SDS011;68056;52.530;5.454;2024-01-10T06:51:37;2.28;;;1.75;;
78732;SDS011;68056;52.530;5.454;2024-01-10T06:54:03;2.13;;;1.02;;
78732;SDS011;68056;52.530;5.454;2024-01-10T06:56:29;1.73;;;1.55;;
78732;SDS011;68056;52.530;5.454;2024-01-10T06:58:55;2.92;;;1.80;;
78732;SDS011;68056;52.530;5.454;2024-01-10T07:01:21;2.58;;;1.58;;
78732;SDS011;68056;52.530;5.454;2024-01-10T07:03:47;2.58;;;1.50;;
78732;SDS011;68056;52.530;5.454;2024-01-10T07:06:13;2.28;;;1.15;;
78732;SDS011;68056;52.530;5.454;2024-01-10T07:08:41;2.28;;;1.17;;
78732;SDS011;68056;52.530;5.454;2024-01-10T07:11:07;2.38;;;1.38;;
78732;SDS011;68056;52.530;5.454;2024-01-10T07:13:33;1.90;;;1.33;;
78732;SDS011;68056;52.530;5.454;2024-01-10T07:15:59;2.38;;;1.48;;
78732;SDS011;68056;52.530;5.454;2024-01-10T07:18:27;2.47;;;1.85;;
78732;SDS011;68056;52.530;5.454;2024-01-10T07:20:53;2.63;;;1.85;;
78732;SDS011;68056;52.530;5.454;2024-01-10T07:23:19;2.67;;;1.90;;
78732;SDS011;68056;52.530;5.454;2024-01-10T07:25:44;1.98;;;1.50;;
78732;SDS011;68056;52.530;5.454;2024-01-10T07:28:10;3.28;;;1.58;;
78732;SDS011;68056;52.530;5.454;2024-01-10T07:30:35;2.05;;;1.70;;
78732;SDS011;68056;52.530;5.454;2024-01-10T07:33:01;1.88;;;1.33;;
78732;SDS011;68056;52.530;5.454;2024-01-10T07:35:26;2.30;;;1.20;;
78732;SDS011;68056;52.530;5.454;2024-01-10T07:37:54;1.20;;;1.00;;
78732;SDS011;68056;52.530;5.454;2024-01-10T07:40:20;4.22;;;1.60;;
78732;SDS011;68056;52.530;5.454;2024-01-10T07:42:45;3.45;;;1.63;;
78732;SDS011;68056;52.530;5.454;2024-01-10T07:45:11;3.85;;;1.83;;
78732;SDS011;68056;52.530;5.454;2024-01-10T07:47:37;3.72;;;1.17;;
78732;SDS011;68056;52.530;5.454;2024-01-10T07:50:04;2.70;;;1.83;;
78732;SDS011;68056;52.530;5.454;2024-01-10T07:52:31;2.63;;;1.33;;
78732;SDS011;68056;52.530;5.454;2024-01-10T07:54:57;2.25;;;1.55;;
78732;SDS011;68056;52.530;5.454;2024-01-10T07:57:23;4.22;;;2.22;;
78732;SDS011;68056;52.530;5.454;2024-01-10T07:59:48;3.25;;;1.73;;
78732;SDS011;68056;52.530;5.454;2024-01-10T08:02:14;3.45;;;1.65;;
78732;SDS011;68056;52.530;5.454;2024-01-10T08:04:39;2.53;;;1.75;;
78732;SDS011;68056;52.530;5.454;2024-01-10T08:07:05;3.38;;;1.88;;
78732;SDS011;68056;52.530;5.454;2024-01-10T08:09:30;2.33;;;1.45;;
78732;SDS011;68056;52.530;5.454;2024-01-10T08:11:56;3.85;;;1.73;;
78732;SDS011;68056;52.530;5.454;2024-01-10T08:14:22;3.33;;;1.40;;
78732;SDS011;68056;52.530;5.454;2024-01-10T08:16:48;2.03;;;1.40;;
78732;SDS011;68056;52.530;5.454;2024-01-10T08:19:13;3.63;;;1.52;;
78732;SDS011;68056;52.530;5.454;2024-01-10T08:21:39;2.50;;;1.77;;
78732;SDS011;68056;52.530;5.454;2024-01-10T08:24:05;2.67;;;1.23;;
78732;SDS011;68056;52.530;5.454;2024-01-10T08:26:31;3.13;;;1.50;;
78732;SDS011;68056;52.530;5.454;2024-01-10T08:28:56;2.33;;;1.70;;
78732;SDS011;68056;52.530;5.454;2024-01-10T08:31:22;2.83;;;1.42;;
78732;SDS011;68056;52.530;5.454;2024-01-10T08:33:48;3.75;;;2.38;;
78732;SDS011;68056;52.530;5.454;2024-01-10T08:36:14;3.90;;;1.83;;
78732;SDS011;68056;52.530;5.454;2024-01-10T08:38:40;2.72;;;1.92;;
78732;SDS011;68056;52.530;5.454;2024-01-10T08:41:09;3.33;;;1.40;;
78732;SDS011;68056;52.530;5.454;2024-01-10T08:43:36;2.53;;;1.60;;
78732;SDS011;68056;52.530;5.454;2024-01-10T08:46:05;3.88;;;1.98;;
78732;SDS011;68056;52.530;5.454;2024-01-10T08:48:31;4.50;;;2.58;;
78732;SDS011;68056;52.530;5.454;2024-01-10T08:50:57;4.05;;;1.90;;
78732;SDS011;68056;52.530;5.454;2024-01-10T08:53:22;4.13;;;2.08;;
78732;SDS011;68056;52.530;5.454;2024-01-10T08:55:48;4.60;;;2.33;;
78732;SDS011;68056;52.530;5.454;2024-01-10T08:58:13;3.53;;;1.65;;
78732;SDS011;68056;52.530;5.454;2024-01-10T09:00:39;3.38;;;2.25;;
78732;SDS011;68056;52.530;5.454;2024-01-10T09:03:05;4.28;;;2.15;;
78732;SDS011;68056;52.530;5.454;2024-01-10T09:05:30;3.25;;;2.10;;
78732;SDS011;68056;52.530;5.454;2024-01-10T09:07:56;6.30;;;2.17;;
78732;SDS011;68056;52.530;5.454;2024-01-10T09:10:21;2.92;;;1.98;;
78732;SDS011;68056;52.530;5.454;2024-01-10T09:12:47;4.93;;;1.98;;
78732;SDS011;68056;52.530;5.454;2024-01-10T09:15:14;5.00;;;2.85;;
78732;SDS011;68056;52.530;5.454;2024-01-10T09:17:42;4.20;;;1.95;;
78732;SDS011;68056;52.530;5.454;2024-01-10T09:20:09;5.38;;;2.75;;
78732;SDS011;68056;52.530;5.454;2024-01-10T09:22:35;3.55;;;2.40;;
78732;SDS011;68056;52.530;5.454;2024-01-10T09:25:01;3.97;;;2.53;;
78732;SDS011;68056;52.530;5.454;2024-01-10T09:29:55;5.05;;;2.88;;
78732;SDS011;68056;52.530;5.454;2024-01-10T09:32:20;4.20;;;2.35;;
78732;SDS011;68056;52.530;5.454;2024-01-10T09:34:47;3.30;;;2.08;;
78732;SDS011;68056;52.530;5.454;2024-01-10T09:37:12;5.13;;;2.72;;
78732;SDS011;68056;52.530;5.454;2024-01-10T09:39:38;3.03;;;2.05;;
78732;SDS011;68056;52.530;5.454;2024-01-10T09:42:04;4.13;;;2.90;;
78732;SDS011;68056;52.530;5.454;2024-01-10T09:44:31;6.50;;;3.22;;
78732;SDS011;68056;52.530;5.454;2024-01-10T09:46:58;5.90;;;2.88;;
78732;SDS011;68056;52.530;5.454;2024-01-10T09:49:23;5.53;;;2.60;;
78732;SDS011;68056;52.530;5.454;2024-01-10T09:51:50;3.05;;;2.35;;
78732;SDS011;68056;52.530;5.454;2024-01-10T09:54:18;4.30;;;2.47;;
78732;SDS011;68056;52.530;5.454;2024-01-10T09:56:45;4.60;;;3.00;;
78732;SDS011;68056;52.530;5.454;2024-01-10T09:59:12;4.40;;;2.67;;
78732;SDS011;68056;52.530;5.454;2024-01-10T10:01:37;4.32;;;2.55;;
78732;SDS011;68056;52.530;5.454;2024-01-10T10:04:04;3.55;;;2.33;;
78732;SDS011;68056;52.530;5.454;2024-01-10T10:06:31;4.82;;;2.67;;
78732;SDS011;68056;52.530;5.454;2024-01-10T10:08:56;2.65;;;2.00;;
78732;SDS011;68056;52.530;5.454;2024-01-10T10:11:22;4.68;;;2.45;;
78732;SDS011;68056;52.530;5.454;2024-01-10T10:13:47;2.47;;;1.65;;
78732;SDS011;68056;52.530;5.454;2024-01-10T10:16:13;2.70;;;2.20;;
78732;SDS011;68056;52.530;5.454;2024-01-10T10:18:48;5.25;;;2.33;;
78732;SDS011;68056;52.530;5.454;2024-01-10T10:21:15;2.92;;;1.88;;
78732;SDS011;68056;52.530;5.454;2024-01-10T10:23:42;3.13;;;2.28;;
78732;SDS011;68056;52.530;5.454;2024-01-10T10:26:21;5.18;;;2.60;;
78732;SDS011;68056;52.530;5.454;2024-01-10T10:28:49;4.28;;;2.42;;
78732;SDS011;68056;52.530;5.454;2024-01-10T10:31:15;2.78;;;1.92;;
78732;SDS011;68056;52.530;5.454;2024-01-10T10:33:42;4.10;;;2.35;;
78732;SDS011;68056;52.530;5.454;2024-01-10T10:36:13;3.55;;;2.67;;
78732;SDS011;68056;52.530;5.454;2024-01-10T10:38:39;3.75;;;2.20;;
78732;SDS011;68056;52.530;5.454;2024-01-10T10:41:05;3.92;;;2.42;;
78732;SDS011;68056;52.530;5.454;2024-01-10T10:43:35;5.90;;;3.38;;
78732;SDS011;68056;52.530;5.454;2024-01-10T10:46:02;5.25;;;3.17;;
78732;SDS011;68056;52.530;5.454;2024-01-10T10:48:32;3.97;;;2.53;;
78732;SDS011;68056;52.530;5.454;2024-01-10T10:51:06;3.30;;;2.17;;
78732;SDS011;68056;52.530;5.454;2024-01-10T10:53:34;3.53;;;2.15;;
78732;SDS011;68056;52.530;5.454;2024-01-10T10:56:05;3.70;;;2.17;;
78732;SDS011;68056;52.530;5.454;2024-01-10T10:58:36;3.45;;;2.10;;
78732;SDS011;68056;52.530;5.454;2024-01-10T11:01:05;3.88;;;2.25;;
78732;SDS011;68056;52.530;5.454;2024-01-10T11:03:35;3.97;;;2.70;;
78732;SDS011;68056;52.530;5.454;2024-01-10T11:06:02;3.20;;;2.42;;
78732;SDS011;68056;52.530;5.454;2024-01-10T11:11:03;3.03;;;2.47;;
78732;SDS011;68056;52.530;5.454;2024-01-10T11:17:17;3.88;;;2.15;;
78732;SDS011;68056;52.530;5.454;2024-01-10T11:19:25;4.72;;;2.60;;
78732;SDS011;68056;52.530;5.454;2024-01-10T11:24:45;4.35;;;2.08;;
78732;SDS011;68056;52.530;5.454;2024-01-10T11:27:13;4.45;;;2.53;;
78732;SDS011;68056;52.530;5.454;2024-01-10T11:29:40;3.85;;;2.08;;
78732;SDS011;68056;52.530;5.454;2024-01-10T11:32:07;6.05;;;3.25;;
78732;SDS011;68056;52.530;5.454;2024-01-10T11:34:49;4.07;;;2.83;;
78732;SDS011;68056;52.530;5.454;2024-01-10T11:37:19;3.63;;;2.85;;
78732;SDS011;68056;52.530;5.454;2024-01-10T11:39:45;3.42;;;2.25;;
78732;SDS011;68056;52.530;5.454;2024-01-10T11:42:11;5.20;;;3.15;;
78732;SDS011;68056;52.530;5.454;2024-01-10T11:44:47;3.58;;;2.38;;
78732;SDS011;68056;52.530;5.454;2024-01-10T11:47:22;3.70;;;2.53;;
78732;SDS011;68056;52.530;5.454;2024-01-10T11:49:53;3.83;;;2.60;;
78732;SDS011;68056;52.530;5.454;2024-01-10T11:52:21;3.75;;;2.80;;
78732;SDS011;68056;52.530;5.454;2024-01-10T11:54:48;3.50;;;2.25;;
78732;SDS011;68056;52.530;5.454;2024-01-10T11:57:21;3.70;;;2.50;;
78732;SDS011;68056;52.530;5.454;2024-01-10T11:59:51;4.22;;;2.65;;
78732;SDS011;68056;52.530;5.454;2024-01-10T12:02:21;4.13;;;2.47;;
78732;SDS011;68056;52.530;5.454;2024-01-10T12:04:48;4.55;;;2.80;;
78732;SDS011;68056;52.530;5.454;2024-01-10T12:07:15;5.05;;;2.78;;
78732;SDS011;68056;52.530;5.454;2024-01-10T12:09:41;3.83;;;2.72;;
78732;SDS011;68056;52.530;5.454;2024-01-10T12:12:07;4.82;;;3.42;;
78732;SDS011;68056;52.530;5.454;2024-01-10T12:14:33;5.75;;;3.33;;
78732;SDS011;68056;52.530;5.454;2024-01-10T12:16:59;3.55;;;2.88;;
78732;SDS011;68056;52.530;5.454;2024-01-10T12:19:25;4.30;;;3.20;;
78732;SDS011;68056;52.530;5.454;2024-01-10T12:21:52;4.03;;;3.05;;
78732;SDS011;68056;52.530;5.454;2024-01-10T12:24:18;3.33;;;2.58;;
78732;SDS011;68056;52.530;5.454;2024-01-10T12:26:48;5.22;;;2.90;;
78732;SDS011;68056;52.530;5.454;2024-01-10T12:29:17;3.50;;;2.28;;
78732;SDS011;68056;52.530;5.454;2024-01-10T12:31:45;6.70;;;3.28;;
78732;SDS011;68056;52.530;5.454;2024-01-10T12:34:11;3.58;;;2.88;;
78732;SDS011;68056;52.530;5.454;2024-01-10T12:36:37;5.85;;;3.40;;
78732;SDS011;68056;52.530;5.454;2024-01-10T12:39:03;4.18;;;2.92;;
78732;SDS011;68056;52.530;5.454;2024-01-10T12:41:32;4.97;;;3.47;;
78732;SDS011;68056;52.530;5.454;2024-01-10T12:43:58;4.65;;;2.85;;
78732;SDS011;68056;52.530;5.454;2024-01-10T12:46:27;4.22;;;2.83;;
78732;SDS011;68056;52.530;5.454;2024-01-10T12:51:28;3.38;;;2.40;;
78732;SDS011;68056;52.530;5.454;2024-01-10T12:53:55;3.17;;;2.63;;
78732;SDS011;68056;52.530;5.454;2024-01-10T12:56:23;5.70;;;3.42;;
78732;SDS011;68056;52.530;5.454;2024-01-10T12:58:49;4.88;;;3.08;;
78732;SDS011;68056;52.530;5.454;2024-01-10T13:01:14;3.97;;;2.78;;
78732;SDS011;68056;52.530;5.454;2024-01-10T13:03:40;5.40;;;3.00;;
78732;SDS011;68056;52.530;5.454;2024-01-10T13:06:06;3.63;;;2.40;;
78732;SDS011;68056;52.530;5.454;2024-01-10T13:08:31;3.70;;;2.50;;
78732;SDS011;68056;52.530;5.454;2024-01-10T13:10:57;5.18;;;3.58;;
78732;SDS011;68056;52.530;5.454;2024-01-10T13:13:25;3.85;;;2.58;;
78732;SDS011;68056;52.530;5.454;2024-01-10T13:15:50;3.55;;;2.38;;
78732;SDS011;68056;52.530;5.454;2024-01-10T13:18:16;4.75;;;3.22;;
78732;SDS011;68056;52.530;5.454;2024-01-10T13:20:42;3.47;;;2.65;;
78732;SDS011;68056;52.530;5.454;2024-01-10T13:23:08;4.30;;;3.10;;
78732;SDS011;68056;52.530;5.454;2024-01-10T13:25:34;3.85;;;2.83;;
78732;SDS011;68056;52.530;5.454;2024-01-10T13:28:01;4.88;;;3.13;;
78732;SDS011;68056;52.530;5.454;2024-01-10T13:30:30;3.80;;;3.03;;
78732;SDS011;68056;52.530;5.454;2024-01-10T13:32:55;4.50;;;3.28;;
78732;SDS011;68056;52.530;5.454;2024-01-10T13:35:23;4.63;;;3.67;;
78732;SDS011;68056;52.530;5.454;2024-01-10T13:37:48;3.60;;;2.70;;
78732;SDS011;68056;52.530;5.454;2024-01-10T13:40:14;5.53;;;2.97;;
78732;SDS011;68056;52.530;5.454;2024-01-10T13:42:40;5.22;;;3.10;;
78732;SDS011;68056;52.530;5.454;2024-01-10T13:45:07;4.70;;;3.00;;
78732;SDS011;68056;52.530;5.454;2024-01-10T13:47:36;3.70;;;2.75;;
78732;SDS011;68056;52.530;5.454;2024-01-10T13:50:02;4.63;;;2.65;;
78732;SDS011;68056;52.530;5.454;2024-01-10T13:52:29;3.83;;;2.55;;
78732;SDS011;68056;52.530;5.454;2024-01-10T13:54:54;3.70;;;2.53;;
78732;SDS011;68056;52.530;5.454;2024-01-10T13:57:21;4.68;;;2.85;;
78732;SDS011;68056;52.530;5.454;2024-01-10T13:59:46;4.03;;;2.80;;
78732;SDS011;68056;52.530;5.454;2024-01-10T14:02:12;4.50;;;2.92;;
78732;SDS011;68056;52.530;5.454;2024-01-10T14:04:39;3.15;;;2.22;;
78732;SDS011;68056;52.530;5.454;2024-01-10T14:07:04;3.35;;;2.50;;
78732;SDS011;68056;52.530;5.454;2024-01-10T14:09:30;3.60;;;2.25;;
78732;SDS011;68056;52.530;5.454;2024-01-10T14:11:56;3.78;;;2.95;;
78732;SDS011;68056;52.530;5.454;2024-01-10T14:14:22;4.53;;;3.05;;
78732;SDS011;68056;52.530;5.454;2024-01-10T14:16:47;4.88;;;2.67;;
78732;SDS011;68056;52.530;5.454;2024-01-10T14:19:14;3.22;;;2.25;;
78732;SDS011;68056;52.530;5.454;2024-01-10T14:21:42;3.80;;;2.45;;
78732;SDS011;68056;52.530;5.454;2024-01-10T14:24:07;4.47;;;3.03;;
78732;SDS011;68056;52.530;5.454;2024-01-10T14:26:33;3.05;;;2.30;;
78732;SDS011;68056;52.530;5.454;2024-01-10T14:28:58;6.18;;;3.35;;
78732;SDS011;68056;52.530;5.454;2024-01-10T14:31:24;4.50;;;3.13;;
78732;SDS011;68056;52.530;5.454;2024-01-10T14:33:50;4.10;;;2.53;;
78732;SDS011;68056;52.530;5.454;2024-01-10T14:36:15;4.93;;;2.53;;
78732;SDS011;68056;52.530;5.454;2024-01-10T14:38:41;3.03;;;2.50;;
78732;SDS011;68056;52.530;5.454;2024-01-10T14:41:07;3.15;;;2.55;;
78732;SDS011;68056;52.530;5.454;2024-01-10T14:43:36;4.43;;;3.17;;
78732;SDS011;68056;52.530;5.454;2024-01-10T14:46:05;4.22;;;2.70;;
78732;SDS011;68056;52.530;5.454;2024-01-10T14:48:31;3.33;;;2.33;;
78732;SDS011;68056;52.530;5.454;2024-01-10T14:50:58;3.17;;;2.65;;
78732;SDS011;68056;52.530;5.454;2024-01-10T14:53:25;3.55;;;2.22;;
78732;SDS011;68056;52.530;5.454;2024-01-10T14:55:50;4.68;;;2.80;;